Time,TemperatureF,DewpointF,PressureIn,WindDirection,WindDirectionDegrees,WindSpeedMPH,WindSpeedGustMPH,Humidity,HourlyPrecipIn,Conditions,Clouds,dailyrainin,SoftwareType,DateUTC
2013-02-17 00:00:00,38.0,3.0,-100.00,West,278,7.0,10.0,23,0.00,,,0.00,,2013-02-17 07:00:00,
2013-02-17 00:41:00,38.0,3.0,-100.00,West,278,7.0,10.0,23,0.00,,,0.00,,2013-02-17 07:41:00,
2013-02-17 00:52:00,38.0,3.0,-100.00,West,278,7.0,10.0,23,0.00,,,0.00,,2013-02-17 07:52:00,
2013-02-17 02:00:00,37.0,5.0,-100.00,WNW,282,8.0,12.0,26,0.00,,,0.00,,2013-02-17 09:00:00,
2013-02-17 02:41:00,37.0,5.0,-100.00,WNW,282,8.0,12.0,26,0.00,,,0.00,,2013-02-17 09:41:00,
2013-02-17 02:52:00,37.0,5.0,-100.00,WNW,282,8.0,12.0,26,0.00,,,0.00,,2013-02-17 09:52:00,
2013-02-17 03:00:00,36.0,5.0,-100.00,West,272,14.0,23.0,27,0.00,,,0.00,,2013-02-17 10:00:00,
2013-02-17 03:41:00,36.0,5.0,-100.00,West,272,14.0,23.0,27,0.00,,,0.00,,2013-02-17 10:41:00,
2013-02-17 03:52:00,36.0,5.0,-100.00,West,272,14.0,23.0,27,0.00,,,0.00,,2013-02-17 10:52:00,
2013-02-17 04:00:00,35.0,6.0,-100.00,West,262,15.0,21.0,29,0.00,,,0.00,,2013-02-17 11:00:00,
2013-02-17 04:41:00,35.0,6.0,-100.00,West,262,15.0,21.0,29,0.00,,,0.00,,2013-02-17 11:41:00,
2013-02-17 04:52:00,35.0,6.0,-100.00,West,262,15.0,21.0,29,0.00,,,0.00,,2013-02-17 11:52:00,
2013-02-17 05:00:00,34.0,7.0,-100.00,West,265,10.0,14.0,32,0.00,,,0.00,,2013-02-17 12:00:00,
2013-02-17 05:42:00,34.0,7.0,-100.00,West,265,10.0,14.0,32,0.00,,,0.00,,2013-02-17 12:42:00,
2013-02-17 05:52:00,34.0,7.0,-100.00,West,265,10.0,14.0,32,0.00,,,0.00,,2013-02-17 12:52:00,
2013-02-17 07:00:00,33.0,8.0,-100.00,West,268,8.0,14.0,35,0.00,,,0.00,,2013-02-17 14:00:00,
2013-02-17 07:42:00,33.0,8.0,-100.00,West,268,8.0,14.0,35,0.00,,,0.00,,2013-02-17 14:42:00,
2013-02-17 07:53:00,33.0,8.0,-100.00,West,268,8.0,14.0,35,0.00,,,0.00,,2013-02-17 14:53:00,
2013-02-17 08:00:00,33.0,10.0,-100.00,West,273,7.0,12.0,38,0.00,,,0.00,,2013-02-17 15:00:00,
2013-02-17 08:41:00,33.0,10.0,-100.00,West,273,7.0,12.0,38,0.00,,,0.00,,2013-02-17 15:41:00,
2013-02-17 08:52:00,33.0,10.0,-100.00,West,273,7.0,12.0,38,0.00,,,0.00,,2013-02-17 15:52:00,
2013-02-17 09:00:00,34.0,15.0,-100.00,SW,225,7.0,13.0,44,0.00,,,0.00,,2013-02-17 16:00:00,
2013-02-17 09:41:00,34.0,15.0,-100.00,SW,225,7.0,13.0,44,0.00,,,0.00,,2013-02-17 16:41:00,
2013-02-17 09:52:00,34.0,15.0,-100.00,SW,225,7.0,13.0,44,0.00,,,0.00,,2013-02-17 16:52:00,
2013-02-17 10:00:00,32.0,14.0,-100.00,SW,229,12.0,16.0,47,0.00,,,0.00,,2013-02-17 17:00:00,
2013-02-17 10:41:00,32.0,14.0,-100.00,SW,229,12.0,16.0,47,0.00,,,0.00,,2013-02-17 17:41:00,
2013-02-17 10:52:00,32.0,14.0,-100.00,SW,229,12.0,16.0,47,0.00,,,0.00,,2013-02-17 17:52:00,
2013-02-17 11:00:00,32.0,3.0,-100.00,SW,227,16.0,23.0,28,0.00,,,0.00,,2013-02-17 18:00:00,
2013-02-17 11:42:00,32.0,3.0,-100.00,SW,227,16.0,23.0,28,0.00,,,0.00,,2013-02-17 18:42:00,
2013-02-17 11:52:00,32.0,3.0,-100.00,SW,227,16.0,23.0,28,0.00,,,0.00,,2013-02-17 18:52:00,
2013-02-17 12:00:00,32.0,-2.0,-100.00,SW,228,17.0,23.0,22,0.00,,,0.00,,2013-02-17 19:00:00,
2013-02-17 12:41:00,32.0,-2.0,-100.00,SW,228,17.0,23.0,22,0.00,,,0.00,,2013-02-17 19:41:00,
2013-02-17 12:52:00,32.0,-2.0,-100.00,SW,228,17.0,23.0,22,0.00,,,0.00,,2013-02-17 19:52:00,
2013-02-17 13:00:00,33.0,-4.0,-100.00,SSW,211,15.0,21.0,20,0.00,,,0.00,,2013-02-17 20:00:00,
2013-02-17 13:42:00,33.0,-4.0,-100.00,SSW,211,15.0,21.0,20,0.00,,,0.00,,2013-02-17 20:42:00,
2013-02-17 13:52:00,33.0,-4.0,-100.00,SSW,211,15.0,21.0,20,0.00,,,0.00,,2013-02-17 20:52:00,
2013-02-17 14:00:00,33.0,-4.0,-100.00,SW,225,12.0,15.0,20,0.00,,,0.00,,2013-02-17 21:00:00,
2013-02-17 14:41:00,33.0,-4.0,-100.00,SW,225,12.0,15.0,20,0.00,,,0.00,,2013-02-17 21:41:00,
2013-02-17 14:53:00,33.0,-4.0,-100.00,SW,225,12.0,15.0,20,0.00,,,0.00,,2013-02-17 21:53:00,
2013-02-17 15:00:00,33.0,-3.0,-100.00,SSW,205,5.0,9.0,20,0.00,,,0.00,,2013-02-17 22:00:00,
2013-02-17 15:41:00,33.0,-3.0,-100.00,SSW,205,5.0,9.0,20,0.00,,,0.00,,2013-02-17 22:41:00,
2013-02-17 15:52:00,33.0,-3.0,-100.00,SSW,205,5.0,9.0,20,0.00,,,0.00,,2013-02-17 22:52:00,
2013-02-17 16:00:00,29.0,10.0,-100.00,ENE,71,10.0,12.0,45,0.00,,,0.00,,2013-02-17 23:00:00,
2013-02-17 16:42:00,29.0,10.0,-100.00,ENE,71,10.0,12.0,45,0.00,,,0.00,,2013-02-17 23:42:00,
2013-02-17 16:52:00,29.0,10.0,-100.00,ENE,71,10.0,12.0,45,0.00,,,0.00,,2013-02-17 23:52:00,
2013-02-17 17:00:00,28.0,8.0,-100.00,NW,320,2.0,6.0,42,0.00,,,0.00,,2013-02-18 00:00:00,
2013-02-17 17:41:00,28.0,8.0,-100.00,NW,320,2.0,6.0,42,0.00,,,0.00,,2013-02-18 00:41:00,
2013-02-17 17:52:00,28.0,8.0,-100.00,NW,320,2.0,6.0,42,0.00,,,0.00,,2013-02-18 00:52:00,
2013-02-17 19:00:00,20.0,18.0,-100.00,East,81,9.0,13.0,91,0.00,,,0.00,,2013-02-18 02:00:00,
2013-02-17 19:41:00,20.0,18.0,-100.00,East,81,9.0,13.0,91,0.00,,,0.00,,2013-02-18 02:41:00,
2013-02-17 19:52:00,20.0,18.0,-100.00,East,81,9.0,13.0,91,0.00,,,0.00,,2013-02-18 02:52:00,
2013-02-17 20:00:00,20.0,18.0,-100.00,East,83,5.0,7.0,91,0.00,,,0.00,,2013-02-18 03:00:00,
2013-02-17 20:42:00,20.0,18.0,-100.00,East,83,5.0,7.0,91,0.00,,,0.00,,2013-02-18 03:42:00,
2013-02-17 20:52:00,20.0,18.0,-100.00,East,83,5.0,7.0,91,0.00,,,0.00,,2013-02-18 03:52:00,
2013-02-17 21:00:00,20.0,18.0,-100.00,NE,38,2.0,3.0,91,0.00,,,0.00,,2013-02-18 04:00:00,
2013-02-17 21:41:00,20.0,18.0,-100.00,NE,38,2.0,3.0,91,0.00,,,0.00,,2013-02-18 04:41:00,
2013-02-17 21:52:00,20.0,18.0,-100.00,NE,38,2.0,3.0,91,0.00,,,0.00,,2013-02-18 04:52:00,
2013-02-17 22:00:00,18.0,16.0,-100.00,WSW,253,3.0,3.0,90,0.00,,,0.00,,2013-02-18 05:00:00,
2013-02-17 22:41:00,18.0,16.0,-100.00,WSW,253,3.0,3.0,90,0.00,,,0.00,,2013-02-18 05:41:00,
2013-02-17 22:52:00,18.0,16.0,-100.00,WSW,253,3.0,3.0,90,0.00,,,0.00,,2013-02-18 05:52:00,
2013-02-17 23:00:00,14.0,9.0,-100.00,West,261,12.0,15.0,83,0.00,,,0.00,,2013-02-18 06:00:00,
2013-02-17 23:41:00,14.0,9.0,-100.00,West,261,12.0,15.0,83,0.00,,,0.00,,2013-02-18 06:41:00,
2013-02-17 23:52:00,14.0,9.0,-100.00,West,261,12.0,15.0,83,0.00,,,0.00,,2013-02-18 06:52:00,